createdAt,value
2019-02-17T00:02:36.688Z,99.90
2019-02-17T00:05:37.087Z,99.90
2019-02-17T00:08:37.378Z,99.90
2019-02-17T00:11:37.671Z,99.90
2019-02-17T00:14:38.128Z,99.90
2019-02-17T00:17:38.690Z,99.90
2019-02-17T00:20:39.194Z,99.90
2019-02-17T00:23:39.500Z,99.90
2019-02-17T00:26:40.620Z,99.90
2019-02-17T00:29:41.885Z,99.90
2019-02-17T00:32:42.476Z,99.90
2019-02-17T00:35:43.570Z,99.90
2019-02-17T00:38:44.710Z,99.90
2019-02-17T00:41:45.485Z,99.90
2019-02-17T00:44:46.630Z,99.90
2019-02-17T00:47:47.030Z,99.90
2019-02-17T00:50:47.409Z,99.90
2019-02-17T00:53:47.743Z,99.90
2019-02-17T00:56:48.035Z,99.90
2019-02-17T00:59:49.052Z,99.90
2019-02-17T01:02:49.470Z,99.90
2019-02-17T01:05:49.944Z,99.90
2019-02-17T01:08:51.054Z,99.90
2019-02-17T01:11:52.094Z,99.90
2019-02-17T01:14:52.655Z,99.90
2019-02-17T01:17:53.109Z,99.90
2019-02-17T01:20:53.681Z,99.90
2019-02-17T01:23:54.153Z,99.90
2019-02-17T01:26:54.881Z,99.90
2019-02-17T01:29:55.319Z,99.90
2019-02-17T01:32:55.916Z,99.90
2019-02-17T01:35:44.825Z,99.90
2019-02-17T01:38:52.665Z,99.90
2019-02-17T01:41:53.022Z,99.90
2019-02-17T01:44:53.430Z,99.90
2019-02-17T01:47:53.726Z,99.90
2019-02-17T01:50:54.005Z,99.90
2019-02-17T01:53:54.337Z,99.90
2019-02-17T01:56:54.822Z,99.90
2019-02-17T01:59:55.422Z,99.90
2019-02-17T02:02:44.247Z,99.90
2019-02-17T02:05:45.018Z,99.90
2019-02-17T02:08:45.897Z,99.90
2019-02-17T02:11:47.093Z,99.90
2019-02-17T02:14:47.762Z,99.90
2019-02-17T02:17:48.437Z,99.90
2019-02-17T02:20:49.129Z,99.90
2019-02-17T02:23:49.693Z,99.90
2019-02-17T02:26:50.013Z,99.90
2019-02-17T02:29:51.157Z,99.90
2019-02-17T02:32:51.464Z,99.90
2019-02-17T02:35:51.935Z,99.90
2019-02-17T02:38:52.227Z,99.90
2019-02-17T02:41:52.755Z,99.90
2019-02-17T02:44:53.153Z,99.90
2019-02-17T02:47:53.955Z,99.90
2019-02-17T02:50:54.340Z,99.90
2019-02-17T02:53:55.341Z,99.90
2019-02-17T02:56:55.829Z,99.90
2019-02-17T02:59:56.265Z,99.90
2019-02-17T03:02:57.649Z,99.90
2019-02-17T03:05:59.782Z,99.90
2019-02-17T03:09:00.805Z,99.90
2019-02-17T03:12:01.645Z,99.90
2019-02-17T03:15:01.900Z,99.90
2019-02-17T03:18:02.588Z,99.90
2019-02-17T03:21:03.719Z,99.90
2019-02-17T03:24:04.212Z,99.90
2019-02-17T03:27:04.758Z,99.90
2019-02-17T03:30:06.246Z,99.90
2019-02-17T03:33:07.459Z,99.90
2019-02-17T03:36:07.816Z,99.90
2019-02-17T03:39:08.123Z,99.90
2019-02-17T03:42:08.573Z,99.90
2019-02-17T03:45:09.334Z,99.90
2019-02-17T03:48:09.918Z,99.90
2019-02-17T03:51:10.256Z,99.90
2019-02-17T03:54:10.971Z,99.90
2019-02-17T03:57:12.193Z,99.90
2019-02-17T04:00:16.998Z,99.90
2019-02-17T04:03:15.003Z,99.90
2019-02-17T04:06:15.415Z,99.90
2019-02-17T04:09:15.785Z,99.90
2019-02-17T04:12:16.076Z,99.90
2019-02-17T04:15:16.751Z,99.90
2019-02-17T04:18:17.196Z,99.90
2019-02-17T04:21:17.687Z,99.90
2019-02-17T04:24:18.217Z,99.90
2019-02-17T04:27:18.546Z,99.90
2019-02-17T04:30:28.934Z,99.90
2019-02-17T04:33:21.351Z,99.90
2019-02-17T04:36:22.617Z,99.90
2019-02-17T04:39:22.948Z,99.90
2019-02-17T04:42:23.274Z,99.90
2019-02-17T04:45:23.746Z,99.90
2019-02-17T04:48:24.571Z,99.90
2019-02-17T04:51:25.325Z,99.90
2019-02-17T04:54:25.765Z,99.90
2019-02-17T04:57:26.456Z,99.90
2019-02-17T05:00:27.566Z,99.90
2019-02-17T05:03:28.486Z,99.90
2019-02-17T05:06:28.798Z,99.90
2019-02-17T05:09:29.105Z,99.90
2019-02-17T05:12:29.517Z,99.90
2019-02-17T05:15:29.942Z,99.90
2019-02-17T05:18:31.141Z,99.90
2019-02-17T05:21:31.471Z,99.90
2019-02-17T05:24:32.119Z,99.90
2019-02-17T05:27:32.741Z,99.90
2019-02-17T05:30:33.056Z,99.90
2019-02-17T05:33:33.333Z,99.90
2019-02-17T05:36:34.275Z,99.90
2019-02-17T05:39:35.063Z,99.90
2019-02-17T05:42:35.925Z,99.90
2019-02-17T05:45:36.664Z,99.90
2019-02-17T05:48:37.241Z,99.90
2019-02-17T05:51:37.715Z,99.90
2019-02-17T05:54:38.325Z,99.90
2019-02-17T05:57:38.849Z,99.90
2019-02-17T06:00:39.890Z,99.90
2019-02-17T06:03:40.407Z,99.90
2019-02-17T06:06:40.945Z,99.90
2019-02-17T06:09:42.041Z,99.90
2019-02-17T06:12:43.060Z,99.90
2019-02-17T06:15:43.570Z,99.90
2019-02-17T06:18:44.021Z,99.90
2019-02-17T06:21:44.413Z,99.90
2019-02-17T06:24:45.243Z,99.90
2019-02-17T06:27:45.759Z,99.90
2019-02-17T06:30:46.099Z,99.90
2019-02-17T06:33:46.797Z,99.90
2019-02-17T06:36:47.287Z,99.90
2019-02-17T06:39:47.853Z,99.90
2019-02-17T06:42:48.961Z,99.90
2019-02-17T06:45:49.677Z,99.90
2019-02-17T06:48:49.986Z,99.90
2019-02-17T06:51:50.373Z,99.90
2019-02-17T06:54:52.297Z,99.90
2019-02-17T06:57:53.033Z,99.90
2019-02-17T07:00:53.389Z,99.90
2019-02-17T07:03:53.803Z,99.90
2019-02-17T07:06:55.970Z,99.90
2019-02-17T07:09:56.655Z,99.90
2019-02-17T07:12:45.232Z,99.90
2019-02-17T07:15:45.814Z,99.90
2019-02-17T07:18:46.222Z,99.90
2019-02-17T07:21:47.300Z,99.90
2019-02-17T07:24:47.976Z,99.90
2019-02-17T07:27:48.526Z,99.90
2019-02-17T07:30:49.165Z,99.90
2019-02-17T07:33:49.731Z,99.90
2019-02-17T07:36:50.520Z,99.90
2019-02-17T07:39:51.711Z,99.90
2019-02-17T07:42:51.998Z,99.90
2019-02-17T07:45:52.375Z,99.90
2019-02-17T07:48:52.778Z,99.90
2019-02-17T07:51:53.144Z,99.90
2019-02-17T07:54:53.533Z,99.90
2019-02-17T07:57:54.163Z,99.90
2019-02-17T08:00:54.606Z,98.90
2019-02-17T08:03:55.070Z,99.90
2019-02-17T08:06:55.537Z,99.90
2019-02-17T08:09:55.855Z,99.80
2019-02-17T08:12:56.425Z,99.80
2019-02-17T08:15:56.809Z,98.70
2019-02-17T08:18:57.782Z,96.40
2019-02-17T08:21:58.354Z,94.20
2019-02-17T08:24:58.767Z,93.20
2019-02-17T08:27:59.480Z,92.30
2019-02-17T08:31:00.201Z,90.70
2019-02-17T08:34:00.649Z,91.30
2019-02-17T08:37:01.226Z,90.20
2019-02-17T08:40:01.832Z,89.80
2019-02-17T08:43:02.206Z,77.70
2019-02-17T08:46:02.464Z,73.30
2019-02-17T08:49:02.776Z,70.30
2019-02-17T08:52:03.067Z,70.90
2019-02-17T08:55:04.111Z,66.50
2019-02-17T08:58:05.905Z,64.30
2019-02-17T09:01:07.373Z,62.90
2019-02-17T09:04:09.093Z,60.10
2019-02-17T09:07:10.018Z,56.80
2019-02-17T09:10:11.234Z,53.90
2019-02-17T09:13:18.397Z,51.80
2019-02-17T09:16:18.873Z,53.20
2019-02-17T09:19:20.019Z,53.70
2019-02-17T09:22:21.608Z,52.10
2019-02-17T09:25:22.845Z,49.20
2019-02-17T09:28:24.583Z,48.10
2019-02-17T09:31:25.725Z,46.80
2019-02-17T09:34:26.841Z,45.50
2019-02-17T09:37:27.951Z,43.30
2019-02-17T09:40:29.350Z,41.90
2019-02-17T09:43:30.237Z,41.00
2019-02-17T09:46:31.985Z,33.30
2019-02-17T09:49:33.181Z,36.30
2019-02-17T09:52:22.340Z,37.50
2019-02-17T09:55:30.814Z,37.70
2019-02-17T09:58:31.780Z,37.30
2019-02-17T10:01:33.154Z,36.50
2019-02-17T10:04:34.492Z,34.70
2019-02-17T10:07:23.624Z,34.10
2019-02-17T10:10:32.118Z,33.10
2019-02-17T10:29:01.502Z,32.30
2019-02-17T10:32:02.425Z,32.90
2019-02-17T10:35:03.315Z,31.40
2019-02-17T10:38:04.054Z,29.80
2019-02-17T10:41:04.685Z,30.10
2019-02-17T10:44:05.285Z,30.30
2019-02-17T10:47:05.913Z,31.80
2019-02-17T10:50:07.327Z,30.60
2019-02-17T10:53:08.642Z,29.50
2019-02-17T10:56:10.079Z,30.00
2019-02-17T10:59:11.384Z,29.50
2019-02-17T11:02:12.013Z,28.60
2019-02-17T11:05:13.419Z,28.40
2019-02-17T11:08:14.742Z,27.80
2019-02-17T11:11:15.514Z,28.40
2019-02-17T11:14:16.309Z,28.30
2019-02-17T11:17:17.726Z,27.60
2019-02-17T11:20:19.014Z,27.90
2019-02-17T11:23:19.740Z,27.60
2019-02-17T11:26:21.139Z,27.30
2019-02-17T11:29:22.566Z,28.50
2019-02-17T11:32:24.041Z,28.70
2019-02-17T11:35:24.673Z,27.80
2019-02-17T11:38:26.132Z,27.10
2019-02-17T11:41:27.618Z,27.50
2019-02-17T11:44:28.572Z,27.10
2019-02-17T11:47:30.070Z,26.90
2019-02-17T11:50:30.880Z,27.70
2019-02-17T11:53:32.172Z,27.40
2019-02-17T11:56:33.072Z,28.20
2019-02-17T11:59:33.702Z,27.40
2019-02-17T12:02:35.181Z,27.70
2019-02-17T12:05:36.520Z,26.70
2019-02-17T12:08:37.850Z,27.10
2019-02-17T12:11:39.220Z,26.60
2019-02-17T12:14:40.082Z,24.60
2019-02-17T12:17:40.650Z,25.30
2019-02-17T12:20:43.890Z,24.90
2019-02-17T12:23:49.707Z,24.00
2019-02-17T12:30:04.611Z,23.30
2019-02-17T12:33:05.906Z,23.30
2019-02-17T12:36:07.161Z,23.50
2019-02-17T12:39:08.102Z,23.50
2019-02-17T12:42:09.551Z,24.30
2019-02-17T12:45:10.714Z,23.60
2019-02-17T12:48:12.029Z,23.70
2019-02-17T12:51:13.306Z,23.50
2019-02-17T12:54:14.635Z,22.90
2019-02-17T12:57:15.679Z,22.30
2019-02-17T13:00:20.675Z,21.50
2019-02-17T13:03:28.272Z,21.80
2019-02-17T13:06:26.543Z,21.00
2019-02-17T13:09:27.747Z,21.30
2019-02-17T13:12:29.199Z,21.90
2019-02-17T13:15:30.400Z,21.70
2019-02-17T13:18:31.234Z,20.90
2019-02-17T13:21:32.565Z,20.80
2019-02-17T13:24:33.649Z,20.30
2019-02-17T13:27:35.120Z,19.40
2019-02-17T13:30:36.414Z,18.50
2019-02-17T13:33:39.405Z,19.00
2019-02-17T13:36:39.980Z,18.80
2019-02-17T13:39:40.757Z,18.90
2019-02-17T13:42:41.635Z,19.00
2019-02-17T13:45:44.689Z,19.70
2019-02-17T13:48:44.758Z,21.00
2019-02-17T13:51:46.241Z,18.60
2019-02-17T13:54:47.654Z,20.10
2019-02-17T13:57:48.229Z,20.10
2019-02-17T14:00:49.734Z,18.90
2019-02-17T14:03:51.214Z,18.80
2019-02-17T14:06:51.868Z,18.60
2019-02-17T14:09:52.790Z,19.00
2019-02-17T14:12:41.753Z,18.50
2019-02-17T14:15:42.958Z,19.60
2019-02-17T14:18:44.226Z,19.60
2019-02-17T14:21:45.794Z,17.70
2019-02-17T14:24:46.403Z,18.70
2019-02-17T14:27:48.010Z,18.20
2019-02-17T14:30:48.614Z,19.20
2019-02-17T14:33:58.093Z,18.50
2019-02-17T14:36:52.334Z,19.00
2019-02-17T14:39:53.047Z,20.10
2019-02-17T14:42:55.432Z,17.70
2019-02-17T14:45:56.614Z,17.80
2019-02-17T14:48:57.224Z,17.90
2019-02-17T14:51:46.299Z,17.70
2019-02-17T14:54:54.450Z,17.40
2019-02-17T14:58:05.000Z,18.40
2019-02-17T15:00:58.727Z,18.00
2019-02-17T15:04:08.100Z,17.40
2019-02-17T15:07:01.948Z,19.20
2019-02-17T15:10:02.613Z,18.30
2019-02-17T15:13:03.309Z,18.00
2019-02-17T15:16:03.943Z,18.40
2019-02-17T15:19:05.572Z,18.90
2019-02-17T15:22:06.950Z,18.90
2019-02-17T15:25:07.645Z,18.70
2019-02-17T15:28:08.453Z,18.70
2019-02-17T15:31:09.949Z,19.00
2019-02-17T15:34:18.419Z,18.50
2019-02-17T15:37:13.518Z,18.60
2019-02-17T15:40:14.327Z,19.10
2019-02-17T15:43:15.874Z,19.40
2019-02-17T15:46:16.771Z,20.90
2019-02-17T15:49:17.806Z,21.80
2019-02-17T15:52:19.321Z,23.20
2019-02-17T15:55:20.880Z,24.70
2019-02-17T15:58:22.608Z,26.10
2019-02-17T16:01:24.058Z,27.00
2019-02-17T16:04:28.533Z,27.90
2019-02-17T16:07:29.100Z,28.40
2019-02-17T16:10:30.026Z,28.80
2019-02-17T16:13:31.852Z,28.80
2019-02-17T16:16:33.415Z,29.00
2019-02-17T16:19:34.729Z,29.40
2019-02-17T16:22:35.848Z,30.00
2019-02-17T16:25:37.528Z,30.70
2019-02-17T16:28:39.274Z,30.80
2019-02-17T16:31:40.824Z,31.40
2019-02-17T16:34:42.432Z,31.70
2019-02-17T16:37:43.867Z,32.10
2019-02-17T16:40:45.521Z,32.80
2019-02-17T16:43:46.813Z,33.00
2019-02-17T16:46:48.610Z,33.90
2019-02-17T16:49:50.269Z,34.50
2019-02-17T16:52:52.141Z,35.10
2019-02-17T16:55:53.210Z,36.00
2019-02-17T16:58:55.037Z,36.50
2019-02-17T17:01:55.998Z,36.40
2019-02-17T17:04:57.246Z,36.90
2019-02-17T17:07:57.788Z,37.10
2019-02-17T17:10:58.347Z,37.30
2019-02-17T17:13:58.991Z,37.70
2019-02-17T17:16:59.539Z,38.10
2019-02-17T17:20:00.018Z,38.40
2019-02-17T17:23:00.651Z,38.60
2019-02-17T17:26:01.584Z,38.40
2019-02-17T17:29:02.241Z,39.10
2019-02-17T17:32:02.721Z,39.70
2019-02-17T17:35:03.169Z,39.90
2019-02-17T17:38:03.496Z,40.30
2019-02-17T17:41:04.023Z,40.70
2019-02-17T17:44:06.970Z,40.30
2019-02-17T17:46:55.662Z,41.00
2019-02-17T17:50:03.680Z,41.10
2019-02-17T17:53:04.733Z,41.50
2019-02-17T17:56:05.095Z,41.60
2019-02-17T17:59:05.958Z,42.10
2019-02-17T18:01:54.545Z,42.40
2019-02-17T18:05:08.728Z,42.80
2019-02-17T18:08:04.685Z,43.20
2019-02-17T18:11:05.785Z,43.50
2019-02-17T18:14:06.231Z,43.90
2019-02-17T18:17:06.774Z,44.10
2019-02-17T18:20:07.823Z,44.30
2019-02-17T18:22:56.598Z,44.80
2019-02-17T18:26:04.514Z,45.00
2019-02-17T18:29:05.223Z,45.00
2019-02-17T18:32:05.633Z,46.40
2019-02-17T18:35:06.309Z,46.90
2019-02-17T18:38:07.309Z,47.00
2019-02-17T18:41:07.786Z,47.00
2019-02-17T18:44:08.186Z,46.90
2019-02-17T18:47:08.846Z,47.30
2019-02-17T18:50:09.362Z,47.40
2019-02-17T18:53:09.894Z,48.10
2019-02-17T18:56:10.440Z,48.20
2019-02-17T18:58:59.202Z,48.30
2019-02-17T19:05:31.878Z,48.10
2019-02-17T19:08:31.714Z,48.60
2019-02-17T19:11:32.615Z,48.80
2019-02-17T19:14:33.472Z,49.40
2019-02-17T19:17:34.113Z,49.30
2019-02-17T19:20:34.766Z,49.80
2019-02-17T19:23:35.473Z,49.80
2019-02-17T19:26:36.216Z,50.40
2019-02-17T19:29:36.902Z,50.80
2019-02-17T19:32:37.717Z,51.20
2019-02-17T19:35:41.886Z,51.60
2019-02-17T19:38:40.916Z,51.60
2019-02-17T19:41:41.497Z,51.40
2019-02-17T19:44:42.058Z,51.70
2019-02-17T19:47:42.400Z,51.60
2019-02-17T19:50:43.578Z,51.80
2019-02-17T19:53:44.090Z,52.10
2019-02-17T19:56:44.859Z,52.40
2019-02-17T19:59:45.336Z,51.90
2019-02-17T20:03:05.008Z,52.50
2019-02-17T20:06:11.454Z,52.50
2019-02-17T20:09:15.371Z,52.70
2019-02-17T20:15:18.239Z,53.40
2019-02-17T20:18:19.098Z,53.40
2019-02-17T20:21:07.687Z,53.70
2019-02-17T20:24:15.589Z,53.90
2019-02-17T20:27:04.268Z,53.60
2019-02-17T20:33:46.045Z,54.50
2019-02-17T20:36:46.480Z,54.60
2019-02-17T20:39:47.152Z,55.10
2019-02-17T20:42:47.511Z,55.20
2019-02-17T20:45:48.393Z,55.20
2019-02-17T20:48:49.154Z,55.40
2019-02-17T20:51:49.714Z,55.80
2019-02-17T20:54:50.397Z,56.30
2019-02-17T20:57:51.227Z,56.80
2019-02-17T21:00:51.594Z,56.60
2019-02-17T21:03:52.072Z,57.20
2019-02-17T21:06:52.394Z,57.40
2019-02-17T21:09:53.191Z,57.40
2019-02-17T21:12:54.327Z,57.50
2019-02-17T21:15:54.717Z,58.00
2019-02-17T21:18:55.259Z,58.00
2019-02-17T21:21:55.767Z,57.90
2019-02-17T21:24:56.246Z,58.40
2019-02-17T21:27:57.055Z,58.30
2019-02-17T21:30:57.626Z,59.00
2019-02-17T21:33:58.186Z,59.90
2019-02-17T21:36:58.479Z,61.20
2019-02-17T21:39:59.796Z,62.20
2019-02-17T21:43:01.017Z,62.90
2019-02-17T21:46:05.371Z,63.00
2019-02-17T21:49:05.977Z,63.60
2019-02-17T21:52:06.298Z,64.00
2019-02-17T21:55:06.915Z,64.70
2019-02-17T21:58:07.232Z,66.00
2019-02-17T22:01:07.911Z,66.40
2019-02-17T22:04:09.236Z,66.90
2019-02-17T22:07:09.878Z,68.50
2019-02-17T22:10:10.673Z,69.20
2019-02-17T22:13:11.950Z,68.20
2019-02-17T22:16:12.840Z,68.40
2019-02-17T22:19:14.152Z,70.10
2019-02-17T22:22:15.290Z,70.60
2019-02-17T22:25:15.979Z,70.40
2019-02-17T22:28:17.179Z,70.70
2019-02-17T22:31:17.428Z,72.20
2019-02-17T22:34:17.794Z,72.80
2019-02-17T22:37:18.597Z,73.80
2019-02-17T22:40:18.847Z,75.70
2019-02-17T22:43:19.666Z,76.70
2019-02-17T22:46:20.193Z,78.20
2019-02-17T22:49:20.487Z,78.20
2019-02-17T22:52:21.034Z,80.30
2019-02-17T22:55:21.454Z,80.40
2019-02-17T22:58:22.205Z,80.30
2019-02-17T23:01:22.655Z,79.60
2019-02-17T23:04:23.169Z,81.20
2019-02-17T23:07:23.514Z,81.20
2019-02-17T23:10:23.960Z,82.20
2019-02-17T23:13:25.324Z,83.10
2019-02-17T23:16:25.641Z,83.80
2019-02-17T23:19:26.007Z,85.60
2019-02-17T23:22:26.450Z,87.00
2019-02-17T23:25:26.969Z,89.20
2019-02-17T23:28:27.702Z,91.70
2019-02-17T23:31:27.969Z,92.30
2019-02-17T23:34:28.582Z,92.50
2019-02-17T23:37:29.026Z,92.10
2019-02-17T23:40:29.561Z,91.50
2019-02-17T23:43:30.358Z,92.20
2019-02-17T23:46:30.827Z,92.40
2019-02-17T23:49:31.394Z,92.80
2019-02-17T23:52:31.805Z,92.50
2019-02-17T23:55:32.239Z,92.00
2019-02-17T23:58:32.766Z,92.30
